Time;durP1;ratioP1;P1;durP2;ratioP2;P2;SDS_P1;SDS_P2;PMS_P1;PMS_P2;Temp;Humidity;BMP_temperature;BMP_pressure;BME280_temperature;BME280_humidity;BME280_pressure;Samples;Min_cycle;Max_cycle;Signal;HPM_P1;HPM_P2
2023/01/10 00:02:13;;;;;;;7.40;3.35;;;;;;;3.28;100.00;97710.00;5105244;28;20058;-66
2023/01/10 00:04:59;;;;;;;5.43;3.58;;;;;;;3.28;100.00;97712.56;5102857;28;20120;-66
2023/01/10 00:07:45;;;;;;;5.47;3.47;;;;;;;3.26;100.00;97708.41;5103276;28;20038;-67
2023/01/10 00:10:31;;;;;;;5.68;3.63;;;;;;;3.27;100.00;97718.69;5091767;28;20120;-65
2023/01/10 00:13:22;;;;;;;7.07;3.90;;;;;;;3.19;100.00;97719.13;5091493;28;20478;-66
2023/01/10 00:16:08;;;;;;;6.25;3.50;;;;;;;3.22;100.00;97717.25;5085508;28;20075;-66
2023/01/10 00:18:52;;;;;;;8.55;4.22;;;;;;;3.22;100.00;97717.25;5105786;28;20043;-66
2023/01/10 00:21:38;;;;;;;7.45;3.80;;;;;;;3.19;100.00;97716.53;5108507;28;20425;-65
2023/01/10 00:24:23;;;;;;;7.25;3.50;;;;;;;3.21;100.00;97711.25;5093727;28;20143;-67
2023/01/10 00:27:08;;;;;;;5.65;3.60;;;;;;;3.19;100.00;97726.03;5097365;28;20032;-67
2023/01/10 00:29:53;;;;;;;6.05;3.58;;;;;;;3.20;100.00;97732.88;5108467;28;20040;-66
2023/01/10 00:32:42;;;;;;;7.70;3.40;;;;;;;3.19;100.00;97721.69;5092961;28;20475;-66
2023/01/10 00:35:27;;;;;;;7.20;3.28;;;;;;;3.18;100.00;97707.06;5110852;28;20520;-66
2023/01/10 00:38:12;;;;;;;6.43;3.33;;;;;;;3.17;100.00;97733.03;5107734;28;20126;-67
2023/01/10 00:40:57;;;;;;;7.07;3.33;;;;;;;3.19;100.00;97729.47;5097987;28;21447;-66
2023/01/10 00:43:57;;;;;;;6.15;3.45;;;;;;;3.22;100.00;97738.81;5091496;28;20048;-66
2023/01/10 00:46:41;;;;;;;4.68;3.28;;;;;;;3.19;100.00;97737.22;5095043;28;20040;-66
2023/01/10 00:49:26;;;;;;;5.75;3.35;;;;;;;3.20;100.00;97745.81;5085334;28;20071;-67
2023/01/10 00:52:10;;;;;;;5.28;3.45;;;;;;;3.19;100.00;97752.78;5094746;28;20046;-66
2023/01/10 00:54:55;;;;;;;5.03;2.92;;;;;;;3.21;100.00;97760.44;5094749;28;20107;-66
2023/01/10 00:57:40;;;;;;;6.72;3.28;;;;;;;3.17;100.00;97758.94;5102053;28;20115;-66
2023/01/10 01:00:25;;;;;;;6.25;3.10;;;;;;;3.21;100.00;97763.03;5103292;28;20035;-67
2023/01/10 01:03:09;;;;;;;5.10;3.20;;;;;;;3.22;100.00;97772.47;5090760;28;20450;-66
2023/01/10 01:05:55;;;;;;;6.82;3.40;;;;;;;3.22;100.00;97789.75;5097484;28;20032;-66
2023/01/10 01:08:39;;;;;;;4.90;3.45;;;;;;;3.24;100.00;97782.72;5090604;28;20131;-67
2023/01/10 01:11:25;;;;;;;4.32;2.60;;;;;;;3.24;100.00;97786.16;5090417;28;20071;-65
2023/01/10 01:14:10;;;;;;;3.53;2.53;;;;;;;3.28;100.00;97795.44;5083132;28;20046;-66
2023/01/10 01:16:55;;;;;;;3.67;2.70;;;;;;;3.28;100.00;97795.44;5090986;28;20138;-66
2023/01/10 01:19:39;;;;;;;5.53;2.90;;;;;;;3.28;100.00;97808.38;5090712;28;20036;-67
2023/01/10 01:22:24;;;;;;;5.78;2.83;;;;;;;3.27;100.00;97814.47;5091000;28;20046;-66
2023/01/10 01:25:10;;;;;;;7.32;4.05;;;;;;;3.26;100.00;97812.81;5092880;28;20040;-66
2023/01/10 01:27:55;;;;;;;7.43;3.38;;;;;;;3.28;100.00;97810.16;5094184;28;20050;-66
2023/01/10 01:30:39;;;;;;;6.15;3.25;;;;;;;3.27;100.00;97814.47;5090163;28;20036;-66
2023/01/10 01:33:24;;;;;;;4.80;2.90;;;;;;;3.21;100.00;97809.63;5097788;28;20031;-66
2023/01/10 01:36:10;;;;;;;5.40;3.08;;;;;;;3.19;100.00;97817.47;5094576;28;20080;-66
2023/01/10 01:38:55;;;;;;;5.40;3.08;;;;;;;3.21;100.00;97809.63;5090747;28;20483;-66
2023/01/10 01:41:57;;;;;;;4.90;3.22;;;;;;;3.19;100.00;97819.22;5096476;28;20046;-66
2023/01/10 01:44:42;;;;;;;5.30;2.85;;;;;;;3.30;100.00;97829.00;5094278;28;20061;-65
2023/01/10 01:47:28;;;;;;;4.57;3.08;;;;;;;3.32;100.00;97819.41;5081890;28;20078;-65
2023/01/10 01:50:32;;;;;;;4.90;2.88;;;;;;;3.27;100.00;97834.34;5103067;28;20028;-65
2023/01/10 01:53:20;;;;;;;5.38;2.80;;;;;;;3.26;100.00;97830.09;5098727;28;20394;-65
2023/01/10 01:56:47;;;;;;;5.45;3.00;;;;;;;3.26;100.00;97838.72;5105942;28;20036;-65
2023/01/10 01:59:38;;;;;;;5.53;3.03;;;;;;;3.27;100.00;97829.16;5104709;28;20035;-65
2023/01/10 02:02:34;;;;;;;5.28;2.95;;;;;;;3.28;100.00;97831.66;5098348;28;20032;-67
2023/01/10 02:05:23;;;;;;;4.35;2.70;;;;;;;3.23;100.00;97843.22;5097012;28;20028;-67
2023/01/10 02:08:08;;;;;;;5.78;3.35;;;;;;;3.24;100.00;97835.34;5087939;28;20048;-66
2023/01/10 02:11:18;;;;;;;7.05;2.78;;;;;;;3.25;100.00;97847.38;5096139;28;20382;-66
2023/01/10 02:14:05;;;;;;;6.85;3.00;;;;;;;3.26;100.00;97850.81;5099813;28;20040;-66
2023/01/10 02:16:51;;;;;;;6.57;2.75;;;;;;;3.25;100.00;97859.50;5107592;28;20403;-66
2023/01/10 02:19:45;;;;;;;5.95;3.08;;;;;;;3.26;100.00;97859.41;5077745;28;20040;-66
2023/01/10 02:22:42;;;;;;;5.97;2.78;;;;;;;3.24;100.00;97861.25;5088901;28;20044;-66
2023/01/10 02:26:09;;;;;;;5.13;2.50;;;;;;;3.27;100.00;97861.09;5094617;28;20024;-66
2023/01/10 02:29:22;;;;;;;5.10;2.75;;;;;;;3.23;100.00;97877.72;5071913;28;20052;-68
2023/01/10 02:33:11;;;;;;;5.03;2.90;;;;;;;3.22;100.00;97876.00;5092148;28;20035;-68
2023/01/10 02:36:48;;;;;;;6.18;3.05;;;;;;;3.17;100.00;97875.41;4972005;28;20081;-66
2023/01/10 02:40:12;;;;;;;7.40;2.85;;;;;;;3.20;100.00;97883.00;5001121;28;20057;-67
2023/01/10 02:43:18;;;;;;;4.97;3.10;;;;;;;3.14;100.00;97868.66;4977940;28;20053;-67
2023/01/10 02:46:50;;;;;;;4.45;3.03;;;;;;;3.16;100.00;97866.00;4990552;28;20045;-67
2023/01/10 02:49:49;;;;;;;4.93;2.78;;;;;;;3.15;100.00;97864.31;5010910;28;20034;-66
2023/01/10 02:52:33;;;;;;;6.60;3.03;;;;;;;3.13;100.00;97864.41;5005401;28;20123;-65
2023/01/10 02:55:25;;;;;;;6.30;2.75;;;;;;;3.14;100.00;97860.03;4992236;28;20465;-66
2023/01/10 02:58:18;;;;;;;5.30;2.83;;;;;;;3.13;100.00;97860.97;4993979;28;20057;-66
2023/01/10 03:01:12;;;;;;;4.70;3.25;;;;;;;3.11;100.00;97876.59;4993211;28;20066;-66
2023/01/10 03:04:34;;;;;;;4.22;3.00;;;;;;;3.11;100.00;97880.91;5003996;28;20047;-66
2023/01/10 03:07:36;;;;;;;8.07;3.10;;;;;;;3.09;100.00;97875.81;4996158;28;20100;-66
2023/01/10 03:10:27;;;;;;;5.53;2.90;;;;;;;3.08;100.00;97890.50;5025554;28;21505;-65
2023/01/10 03:13:18;;;;;;;5.82;3.13;;;;;;;3.12;100.00;97877.44;5085290;28;20052;-66
2023/01/10 03:16:09;;;;;;;4.70;3.00;;;;;;;3.14;100.00;97893.69;5085401;28;20493;-66
2023/01/10 03:18:56;;;;;;;4.97;2.90;;;;;;;3.13;100.00;97892.03;5093125;28;20047;-66
2023/01/10 03:21:43;;;;;;;4.72;2.90;;;;;;;3.13;100.00;97879.94;5063926;28;20039;-66
2023/01/10 03:24:41;;;;;;;6.45;2.75;;;;;;;3.16;100.00;97897.06;5092398;28;20518;-66
2023/01/10 03:27:50;;;;;;;4.82;2.72;;;;;;;3.16;100.00;97899.63;5072605;28;20048;-66
2023/01/10 03:31:07;;;;;;;4.30;2.40;;;;;;;3.13;100.00;97908.41;5081360;28;20040;-66
2023/01/10 03:33:52;;;;;;;5.20;2.60;;;;;;;3.12;100.00;97913.66;5020958;28;20481;-67
2023/01/10 03:37:08;;;;;;;4.55;2.75;;;;;;;3.15;100.00;97914.31;5019383;28;20041;-65
2023/01/10 03:40:04;;;;;;;5.15;2.85;;;;;;;3.15;100.00;97909.16;5011282;28;20053;-66
2023/01/10 03:46:22;;;;;;;5.47;2.88;;;;;;;3.20;100.00;97925.28;5023975;28;20042;-66
2023/01/10 03:49:09;;;;;;;4.68;2.53;;;;;;;3.26;100.00;97944.84;5026056;28;20095;-67
2023/01/10 03:51:57;;;;;;;5.22;2.80;;;;;;;3.20;100.00;97946.00;5024170;28;20106;-68
2023/01/10 03:54:43;;;;;;;4.15;2.65;;;;;;;3.20;100.00;97947.75;4996001;28;20472;-67
2023/01/10 03:57:28;;;;;;;4.60;2.95;;;;;;;3.18;100.00;97959.94;5024982;28;20049;-67
2023/01/10 04:00:14;;;;;;;5.18;2.63;;;;;;;3.13;100.00;97970.53;5028312;28;20052;-67
2023/01/10 04:02:59;;;;;;;4.80;2.60;;;;;;;3.14;100.00;97964.44;5019733;28;20041;-66
2023/01/10 04:05:45;;;;;;;3.83;2.33;;;;;;;3.13;100.00;97975.72;5029036;28;20084;-67
2023/01/10 04:08:30;;;;;;;4.15;2.63;;;;;;;3.11;100.00;97974.94;5029072;28;20168;-65
2023/01/10 04:11:14;;;;;;;4.50;2.75;;;;;;;3.12;100.00;97986.97;5095388;28;20040;-66
2023/01/10 04:13:59;;;;;;;4.75;2.75;;;;;;;3.12;100.00;97986.97;5104726;28;20036;-66
2023/01/10 04:16:44;;;;;;;4.90;3.20;;;;;;;3.09;100.00;97971.59;5099100;28;20050;-66
2023/01/10 04:19:28;;;;;;;5.85;2.90;;;;;;;3.11;100.00;98006.00;5100167;28;20040;-67
2023/01/10 04:22:13;;;;;;;3.38;2.50;;;;;;;3.12;100.00;98004.28;5098829;28;20593;-67
2023/01/10 04:24:57;;;;;;;4.72;2.58;;;;;;;3.15;100.00;98010.09;5078691;28;20035;-66
2023/01/10 04:27:42;;;;;;;5.15;2.65;;;;;;;3.17;100.00;98010.03;5105231;28;20058;-67
2023/01/10 04:30:27;;;;;;;4.10;2.67;;;;;;;3.22;100.00;98002.88;5102871;28;20040;-67
2023/01/10 04:33:12;;;;;;;3.03;2.25;;;;;;;3.16;100.00;98008.38;5103854;28;20119;-67
2023/01/10 04:35:57;;;;;;;4.10;2.78;;;;;;;3.14;100.00;98002.41;5090155;28;20084;-67
2023/01/10 04:38:41;;;;;;;4.65;2.80;;;;;;;3.16;100.00;98014.38;5110954;28;20042;-67
2023/01/10 04:41:26;;;;;;;6.43;2.78;;;;;;;3.16;100.00;98023.91;5075620;28;20042;-67
2023/01/10 04:44:10;;;;;;;5.15;2.67;;;;;;;3.17;100.00;98021.22;5103766;28;20055;-67
2023/01/10 04:46:55;;;;;;;6.05;2.45;;;;;;;3.14;100.00;98029.16;5085333;28;20039;-67
2023/01/10 04:49:43;;;;;;;4.50;2.33;;;;;;;3.13;100.00;98024.91;5110337;28;20035;-67
2023/01/10 04:52:28;;;;;;;5.60;2.92;;;;;;;3.12;100.00;98033.56;5094921;28;20144;-66
2023/01/10 04:55:13;;;;;;;5.30;2.60;;;;;;;3.13;100.00;98031.81;5075258;28;20047;-67
2023/01/10 04:57:58;;;;;;;4.00;2.88;;;;;;;3.20;100.00;98040.94;5097740;28;20074;-67
2023/01/10 05:00:42;;;;;;;5.63;2.78;;;;;;;3.15;100.00;98058.47;5102677;28;20074;-66
2023/01/10 05:03:26;;;;;;;3.70;2.40;;;;;;;3.14;100.00;98061.97;5090999;28;20115;-65
2023/01/10 05:06:11;;;;;;;4.82;2.53;;;;;;;3.11;100.00;98057.78;5097551;28;20046;-66
2023/01/10 05:08:56;;;;;;;5.05;3.10;;;;;;;3.15;100.00;98056.69;5083366;28;20036;-66
2023/01/10 05:11:40;;;;;;;4.53;2.92;;;;;;;3.14;100.00;98056.78;5091156;28;20131;-67
2023/01/10 05:14:26;;;;;;;5.75;2.72;;;;;;;3.35;100.00;98035.91;5096570;28;20549;-64
2023/01/10 05:17:11;;;;;;;3.20;2.33;;;;;;;3.21;100.00;98050.41;5101614;28;20039;-67
2023/01/10 05:19:56;;;;;;;3.75;2.42;;;;;;;3.18;100.00;98048.78;5082682;28;20084;-66
2023/01/10 05:22:41;;;;;;;6.72;3.22;;;;;;;3.17;100.00;98054.88;5103966;28;20482;-66
2023/01/10 05:25:26;;;;;;;5.50;3.13;;;;;;;3.20;100.00;98064.25;5096649;28;20209;-66
2023/01/10 05:28:10;;;;;;;4.30;2.80;;;;;;;3.16;100.00;98058.41;5080903;28;20039;-66
2023/01/10 05:30:55;;;;;;;4.93;3.03;;;;;;;3.12;100.00;98068.97;5088015;28;20091;-66
2023/01/10 05:33:45;;;;;;;4.18;2.60;;;;;;;3.11;100.00;98062.97;5104678;28;20497;-66
2023/01/10 05:36:31;;;;;;;3.95;2.67;;;;;;;3.13;100.00;98044.75;5080016;28;20039;-66
2023/01/10 05:39:17;;;;;;;7.43;2.75;;;;;;;3.15;100.00;98058.47;5085816;28;20128;-66
2023/01/10 05:42:02;;;;;;;5.22;2.53;;;;;;;3.11;100.00;98075.06;5084073;28;20156;-67
2023/01/10 05:44:47;;;;;;;4.28;2.63;;;;;;;3.13;100.00;98078.41;5092882;28;20131;-69
2023/01/10 05:47:32;;;;;;;4.25;2.58;;;;;;;3.12;100.00;98087.91;5106239;28;20216;-66
2023/01/10 05:50:16;;;;;;;4.60;3.05;;;;;;;3.13;100.00;98086.19;5105134;28;20043;-68
2023/01/10 05:53:04;;;;;;;4.95;2.97;;;;;;;3.17;100.00;98085.94;5106430;28;20063;-66
2023/01/10 05:55:57;;;;;;;5.45;2.80;;;;;;;3.16;100.00;98101.56;5110938;28;20039;-68
2023/01/10 05:58:41;;;;;;;3.65;2.72;;;;;;;3.22;100.00;98111.59;5095622;28;20120;-69
2023/01/10 06:01:26;;;;;;;4.38;3.00;;;;;;;3.66;100.00;98118.09;5095125;28;20093;-68
2023/01/10 06:04:11;;;;;;;4.07;2.42;;;;;;;3.33;100.00;98124.88;5088849;28;20129;-67
2023/01/10 06:06:55;;;;;;;4.65;2.90;;;;;;;3.22;100.00;98134.91;5100095;28;20064;-67
2023/01/10 06:09:40;;;;;;;5.93;3.17;;;;;;;3.24;100.00;98134.84;5094092;28;20086;-68
2023/01/10 06:12:25;;;;;;;3.47;2.50;;;;;;;3.27;100.00;98150.22;5093818;28;20134;-68
2023/01/10 06:15:10;;;;;;;3.80;3.05;;;;;;;3.20;100.00;98150.53;5106249;28;20119;-67
2023/01/10 06:17:54;;;;;;;4.47;2.63;;;;;;;3.15;100.00;98143.91;5090550;28;20047;-67
2023/01/10 06:20:41;;;;;;;4.20;2.95;;;;;;;3.13;100.00;98156.91;5093990;28;20038;-66
2023/01/10 06:23:27;;;;;;;4.28;2.63;;;;;;;3.14;100.00;98166.34;5067036;28;20494;-67
2023/01/10 06:26:15;;;;;;;7.25;2.92;;;;;;;3.19;100.00;98179.91;5094548;28;20127;-66
2023/01/10 06:29:00;;;;;;;4.07;2.70;;;;;;;3.17;100.00;98173.97;5094052;28;20032;-68
2023/01/10 06:31:45;;;;;;;4.60;2.60;;;;;;;3.20;100.00;98167.78;5093783;28;20123;-68
2023/01/10 06:34:30;;;;;;;3.70;3.05;;;;;;;3.15;100.00;98193.91;5107690;28;20035;-67
2023/01/10 06:37:14;;;;;;;4.57;2.72;;;;;;;3.20;100.00;98201.44;5085479;28;20032;-67
2023/01/10 06:39:59;;;;;;;4.07;3.00;;;;;;;3.18;100.00;98192.94;5099329;28;20051;-67
2023/01/10 06:42:43;;;;;;;3.65;2.88;;;;;;;3.15;100.00;98200.84;5099584;28;20047;-68
2023/01/10 06:45:28;;;;;;;4.43;2.83;;;;;;;3.18;100.00;98211.06;5093708;28;20037;-67
2023/01/10 06:48:14;;;;;;;4.78;3.00;;;;;;;3.15;100.00;98203.44;5088746;28;20039;-68
2023/01/10 06:50:58;;;;;;;4.57;3.22;;;;;;;3.17;100.00;98206.78;5093776;28;20059;-67
2023/01/10 06:53:43;;;;;;;5.85;2.97;;;;;;;3.15;100.00;98217.19;5105693;28;20111;-67
2023/01/10 06:56:28;;;;;;;4.53;2.60;;;;;;;3.15;100.00;98208.63;5113314;28;20493;-66
2023/01/10 06:59:12;;;;;;;3.85;2.58;;;;;;;3.12;100.00;98219.94;5112530;28;20046;-67
2023/01/10 07:01:57;;;;;;;4.82;2.60;;;;;;;3.20;100.00;98232.53;5097179;28;20055;-67
2023/01/10 07:04:42;;;;;;;3.60;2.60;;;;;;;3.24;100.00;98244.44;5092782;28;20566;-66
2023/01/10 07:07:27;;;;;;;4.68;2.60;;;;;;;3.23;100.00;98247.09;5097691;28;20044;-67
2023/01/10 07:10:12;;;;;;;4.25;2.65;;;;;;;3.25;100.00;98260.81;5098409;28;20063;-66
2023/01/10 07:12:57;;;;;;;3.72;2.88;;;;;;;3.22;100.00;98266.94;5093427;28;20109;-67
2023/01/10 07:15:42;;;;;;;7.28;2.65;;;;;;;3.21;100.00;98270.47;5084736;28;20103;-67
2023/01/10 07:18:27;;;;;;;4.78;2.80;;;;;;;3.25;100.00;98273.75;5098073;28;20043;-66
2023/01/10 07:21:12;;;;;;;4.25;2.55;;;;;;;3.25;100.00;98289.28;5093130;28;20050;-68
2023/01/10 07:23:56;;;;;;;3.90;2.88;;;;;;;3.25;100.00;98287.53;5101896;28;20055;-67
2023/01/10 07:26:41;;;;;;;5.60;2.63;;;;;;;3.25;100.00;98300.47;5099531;28;20043;-68
2023/01/10 07:29:26;;;;;;;3.85;2.63;;;;;;;3.28;100.00;98302.09;5097496;28;20102;-67
2023/01/10 07:32:10;;;;;;;6.82;2.80;;;;;;;3.29;100.00;98301.16;5093018;28;20036;-68
2023/01/10 07:34:55;;;;;;;4.38;3.20;;;;;;;3.28;100.00;98307.28;5103587;28;20550;-68
2023/01/10 07:37:41;;;;;;;4.70;2.67;;;;;;;3.34;100.00;98322.53;5092516;28;20036;-67
2023/01/10 07:40:26;;;;;;;4.72;2.70;;;;;;;3.30;100.00;98324.41;5079665;28;20486;-68
2023/01/10 07:43:11;;;;;;;4.15;2.67;;;;;;;3.35;100.00;98333.69;5101098;28;20054;-68
2023/01/10 07:46:07;;;;;;;4.78;3.05;;;;;;;3.32;100.00;98332.94;5090663;28;20040;-67
2023/01/10 07:48:53;;;;;;;5.38;2.92;;;;;;;3.38;100.00;98344.75;5109298;28;20050;-68
2023/01/10 07:51:37;;;;;;;4.65;3.40;;;;;;;3.38;100.00;98347.34;5091543;28;20040;-67
2023/01/10 07:54:22;;;;;;;7.05;3.40;;;;;;;3.42;100.00;98348.91;5090128;28;20063;-66
2023/01/10 07:57:06;;;;;;;4.07;2.85;;;;;;;3.39;100.00;98362.00;5092267;28;20043;-67
2023/01/10 07:59:51;;;;;;;4.20;3.08;;;;;;;3.43;100.00;98368.72;5092596;28;20062;-67
2023/01/10 08:02:36;;;;;;;4.85;3.03;;;;;;;3.42;100.00;98366.19;5103018;28;20044;-66
2023/01/10 08:05:22;;;;;;;6.70;3.17;;;;;;;3.43;100.00;98378.22;5076843;28;20055;-67
2023/01/10 08:08:08;;;;;;;4.82;2.92;;;;;;;3.42;100.00;98369.63;5083555;28;20100;-68
2023/01/10 08:10:53;;;;;;;5.45;3.55;;;;;;;3.44;100.00;98369.56;5099302;28;20035;-68
2023/01/10 08:13:38;;;;;;;5.20;3.42;;;;;;;3.44;100.00;98391.09;5103376;28;20374;-68
2023/01/10 08:16:22;;;;;;;5.35;2.85;;;;;;;3.45;100.00;98413.53;5096469;28;20047;-68
2023/01/10 08:19:08;;;;;;;6.03;2.97;;;;;;;3.49;100.00;98405.63;5100731;28;20127;-67
2023/01/10 08:21:53;;;;;;;5.95;2.90;;;;;;;3.51;100.00;98419.34;5110886;28;20036;-68
2023/01/10 08:24:38;;;;;;;5.35;3.30;;;;;;;3.51;100.00;98432.28;5094877;28;20086;-67
2023/01/10 08:27:23;;;;;;;5.10;2.97;;;;;;;3.55;100.00;98433.81;5102454;28;20050;-66
2023/01/10 08:30:08;;;;;;;4.97;3.10;;;;;;;3.66;100.00;98446.28;5104457;28;20808;-66
2023/01/10 08:32:53;;;;;;;3.45;2.80;;;;;;;3.65;100.00;98440.28;5091416;28;20059;-68
2023/01/10 08:35:41;;;;;;;5.07;2.88;;;;;;;3.60;100.00;98454.34;5091472;28;20407;-68
2023/01/10 08:38:27;;;;;;;3.97;2.92;;;;;;;3.62;100.00;98458.56;5078063;28;20108;-66
2023/01/10 08:41:12;;;;;;;4.28;3.15;;;;;;;3.65;100.00;98466.19;5095710;28;20067;-68
2023/01/10 08:43:57;;;;;;;4.57;2.45;;;;;;;3.62;100.00;98463.75;5096442;28;20048;-68
2023/01/10 08:46:41;;;;;;;4.00;2.78;;;;;;;3.61;100.00;98469.00;5094966;28;20736;-63
2023/01/10 08:49:26;;;;;;;4.93;2.63;;;;;;;3.59;100.00;98474.22;5080942;28;20063;-68
2023/01/10 08:52:11;;;;;;;3.88;2.78;;;;;;;3.59;100.00;98470.81;5095031;28;20039;-67
2023/01/10 08:54:55;;;;;;;5.72;3.17;;;;;;;3.59;100.00;98470.81;5090230;28;20035;-67
2023/01/10 08:57:41;;;;;;;5.03;3.00;;;;;;;3.58;100.00;98482.91;5088556;28;20519;-66
2023/01/10 09:00:27;;;;;;;3.92;3.17;;;;;;;3.59;100.00;98505.31;5088898;28;20044;-68
2023/01/10 09:03:11;;;;;;;5.72;3.13;;;;;;;3.60;100.00;98493.19;5103017;28;20383;-66
2023/01/10 09:05:58;;;;;;;5.43;3.03;;;;;;;3.60;100.00;98499.25;5090994;28;20115;-66
2023/01/10 09:08:42;;;;;;;4.93;2.95;;;;;;;3.66;100.00;98495.50;5097484;28;20407;-66
2023/01/10 09:11:27;;;;;;;5.40;3.10;;;;;;;3.85;100.00;98510.25;5096458;28;20109;-67
2023/01/10 09:14:14;;;;;;;5.35;3.10;;;;;;;3.71;100.00;98519.47;5077992;28;20063;-67
2023/01/10 09:16:59;;;;;;;4.63;3.00;;;;;;;3.72;100.00;98528.09;5102022;28;20075;-66
2023/01/10 09:19:43;;;;;;;5.22;3.33;;;;;;;3.69;100.00;98539.44;5079087;28;20066;-67
2023/01/10 09:22:29;;;;;;;4.47;3.22;;;;;;;3.77;100.00;98541.72;5073561;28;20479;-67
2023/01/10 09:25:13;;;;;;;5.07;3.00;;;;;;;3.75;100.00;98546.97;5106795;28;20044;-66
2023/01/10 09:27:59;;;;;;;6.05;3.60;;;;;;;3.72;100.00;98544.47;5106394;28;20524;-67
2023/01/10 09:30:44;;;;;;;5.03;3.50;;;;;;;3.76;100.00;98547.78;5107713;28;20043;-67
2023/01/10 09:33:29;;;;;;;4.95;3.90;;;;;;;3.72;100.00;98561.78;5090022;28;20044;-68
2023/01/10 09:36:15;;;;;;;4.28;3.25;;;;;;;3.74;100.00;98555.63;5101724;28;20146;-67
2023/01/10 09:39:00;;;;;;;4.80;2.85;;;;;;;3.78;100.00;98569.28;5090994;28;20051;-67
2023/01/10 09:42:27;;;;;;;5.28;3.53;;;;;;;3.75;100.00;98575.47;5064441;28;20132;-67
2023/01/10 09:45:29;;;;;;;5.25;3.10;;;;;;;3.84;100.00;98578.53;5097968;28;20099;-67
2023/01/10 09:48:19;;;;;;;4.88;2.97;;;;;;;4.01;100.00;98589.03;5094765;28;20048;-67
2023/01/10 09:51:18;;;;;;;7.10;3.70;;;;;;;3.92;100.00;98589.41;5105460;28;20422;-68
2023/01/10 09:54:23;;;;;;;4.38;2.90;;;;;;;3.96;100.00;98584.94;5100618;28;20429;-66
2023/01/10 09:57:18;;;;;;;4.10;2.88;;;;;;;3.91;100.00;98595.50;5095448;28;20051;-66
2023/01/10 10:00:05;;;;;;;5.47;2.85;;;;;;;3.90;100.00;98599.84;5075055;28;20036;-66
2023/01/10 10:03:37;;;;;;;7.15;3.40;;;;;;;3.88;100.00;98596.50;5097016;28;20480;-65
2023/01/10 10:06:22;;;;;;;5.05;3.50;;;;;;;3.89;100.00;98600.78;5098498;28;20048;-66
2023/01/10 10:09:16;;;;;;;4.13;2.92;;;;;;;4.00;100.00;98604.66;5107668;28;20039;-65
2023/01/10 10:12:23;;;;;;;7.70;4.20;;;;;;;3.98;100.00;98596.09;5092807;28;20436;-66
2023/01/10 10:15:31;;;;;;;5.15;3.33;;;;;;;4.00;100.00;98608.06;5107387;28;20043;-66
2023/01/10 10:18:35;;;;;;;4.30;2.90;;;;;;;4.03;100.00;98599.34;5108547;28;20134;-66
2023/01/10 10:21:34;;;;;;;5.25;3.22;;;;;;;4.04;100.00;98596.66;5097592;28;20050;-66
2023/01/10 10:24:34;;;;;;;5.45;3.50;;;;;;;4.09;100.00;98603.38;5102155;28;20415;-66
2023/01/10 10:27:28;;;;;;;5.85;3.25;;;;;;;4.13;100.00;98600.59;5102759;28;20554;-68
2023/01/10 10:30:31;;;;;;;4.28;2.97;;;;;;;4.17;100.00;98602.16;5101112;28;20043;-67
2023/01/10 10:33:21;;;;;;;4.70;3.05;;;;;;;4.17;100.00;98615.13;5095351;28;20051;-66
2023/01/10 10:36:17;;;;;;;4.60;3.25;;;;;;;4.21;100.00;98589.88;5098927;28;20123;-66
2023/01/10 10:39:04;;;;;;;5.45;3.28;;;;;;;4.17;100.00;98615.13;5098132;28;20036;-67
2023/01/10 10:41:53;;;;;;;5.30;3.35;;;;;;;4.28;100.00;98609.44;5061085;28;20040;-66
2023/01/10 10:44:53;;;;;;;4.07;2.80;;;;;;;4.30;100.00;98614.56;5102282;28;20028;-66
2023/01/10 10:47:39;;;;;;;4.40;3.05;;;;;;;4.35;100.00;98614.34;5093617;28;20115;-66
2023/01/10 10:50:33;;;;;;;4.95;3.00;;;;;;;4.31;100.00;98614.47;5091364;28;20060;-66
2023/01/10 10:53:18;;;;;;;3.80;2.63;;;;;;;4.35;100.00;98619.53;5096972;28;20356;-65
2023/01/10 10:56:05;;;;;;;6.53;3.00;;;;;;;4.42;100.00;98626.13;5093328;28;20032;-66
2023/01/10 10:58:54;;;;;;;4.53;3.15;;;;;;;4.39;100.00;98615.91;5106213;28;20031;-67
2023/01/10 11:01:42;;;;;;;4.78;2.63;;;;;;;4.39;100.00;98621.09;5097807;28;20040;-67
2023/01/10 11:04:27;;;;;;;3.90;2.90;;;;;;;4.39;100.00;98628.88;5100543;28;20035;-67
2023/01/10 11:07:16;;;;;;;4.15;2.58;;;;;;;4.39;100.00;98634.88;5113084;28;20028;-66
2023/01/10 11:10:13;;;;;;;3.35;2.45;;;;;;;4.49;100.00;98631.91;5098008;28;20539;-66
2023/01/10 11:13:01;;;;;;;3.78;2.42;;;;;;;4.51;100.00;98617.94;5078531;28;20044;-66
2023/01/10 11:15:47;;;;;;;4.55;2.58;;;;;;;4.54;100.00;98633.34;5085164;28;20379;-67
2023/01/10 11:18:33;;;;;;;4.32;2.42;;;;;;;4.63;100.00;98620.88;5113227;28;20501;-66
2023/01/10 11:21:18;;;;;;;6.40;2.40;;;;;;;4.68;100.00;98643.09;5106119;28;20043;-67
2023/01/10 11:24:03;;;;;;;4.45;1.95;;;;;;;4.72;100.00;98630.00;5096884;28;20042;-66
2023/01/10 11:26:48;;;;;;;5.18;3.00;;;;;;;4.70;100.00;98639.59;5092874;28;20044;-67
2023/01/10 11:29:41;;;;;;;4.50;1.85;;;;;;;4.77;100.00;98635.78;5092383;28;20033;-67
2023/01/10 11:32:35;;;;;;;3.53;2.00;;;;;;;4.72;100.00;98625.63;5092767;28;20043;-66
2023/01/10 11:35:30;;;;;;;3.45;2.13;;;;;;;4.74;100.00;98634.19;5093018;28;20047;-66
2023/01/10 11:38:20;;;;;;;3.38;1.60;;;;;;;4.72;100.00;98638.59;5095971;28;20446;-66
2023/01/10 11:42:11;;;;;;;3.80;1.83;;;;;;;4.72;100.00;98640.38;5092771;28;20036;-67
2023/01/10 11:44:36;;;;;;;4.32;1.85;;;;;;;4.75;100.00;98651.44;5107736;28;20067;-66
2023/01/10 11:47:21;;;;;;;3.83;1.98;;;;;;;4.71;100.00;98634.34;5077071;28;20530;-67
2023/01/10 11:50:09;;;;;;;2.17;1.67;;;;;;;4.75;100.00;98635.84;5094323;28;20067;-66
2023/01/10 11:52:57;;;;;;;3.00;1.95;;;;;;;4.80;100.00;98638.25;5094817;28;20494;-67
2023/01/10 11:55:46;;;;;;;3.10;1.77;;;;;;;4.79;100.00;98640.00;5052473;28;20036;-67
2023/01/10 11:58:38;;;;;;;4.22;2.35;;;;;;;4.76;100.00;98639.31;5105240;28;20368;-67
2023/01/10 12:01:27;;;;;;;3.85;2.28;;;;;;;4.77;100.00;98646.16;5102782;28;20467;-68
2023/01/10 12:04:19;;;;;;;4.65;1.67;;;;;;;4.85;100.00;98658.81;5080145;28;20131;-65
2023/01/10 12:07:08;;;;;;;2.88;1.77;;;;;;;4.85;100.00;98645.84;5075645;28;20483;-66
2023/01/10 12:09:59;;;;;;;2.95;1.35;;;;;;;4.87;100.00;98636.19;5095925;28;20040;-64
2023/01/10 12:12:53;;;;;;;3.67;1.60;;;;;;;4.90;100.00;98665.47;5094471;28;20052;-66
2023/01/10 12:15:38;;;;;;;2.85;1.55;;;;;;;4.90;100.00;98657.69;5105226;28;20097;-64
2023/01/10 12:18:23;;;;;;;6.97;2.80;;;;;;;4.92;100.00;98662.78;5103908;28;20159;-64
2023/01/10 12:21:18;;;;;;;3.20;1.60;;;;;;;4.96;100.00;98666.09;5093961;28;20044;-63
2023/01/10 12:24:27;;;;;;;4.22;1.92;;;;;;;4.96;100.00;98666.91;5077031;28;20408;-65
2023/01/10 12:27:14;;;;;;;3.97;1.70;;;;;;;4.99;100.00;98668.53;5091326;28;20047;-65
2023/01/10 12:30:13;;;;;;;3.47;1.88;;;;;;;5.01;100.00;98683.13;5078980;28;20044;-65
2023/01/10 12:33:01;;;;;;;2.30;1.80;;;;;;;5.01;100.00;98688.31;5100628;28;20537;-66
2023/01/10 12:35:49;;;;;;;4.15;1.77;;;;;;;5.01;100.00;98677.09;5101902;28;20115;-66
2023/01/10 12:39:04;;;;;;;4.38;1.65;;;;;;;5.03;100.00;98676.13;5093793;28;20051;-66
2023/01/10 12:45:27;;;;;;;2.83;1.60;;;;;;;5.04;100.00;98693.38;5097396;28;20096;-64
2023/01/10 12:48:19;;;;;;;2.65;1.75;;;;;;;5.07;100.00;98694.16;5095450;28;20063;-64
2023/01/10 12:51:10;;;;;;;3.35;1.70;;;;;;;5.07;100.00;98687.22;5099243;28;20052;-63
2023/01/10 12:54:04;;;;;;;3.05;1.35;;;;;;;5.09;100.00;98702.72;5089463;28;20048;-65
2023/01/10 12:56:49;;;;;;;4.45;1.70;;;;;;;5.16;100.00;98702.34;5099789;28;20043;-65
2023/01/10 12:59:40;;;;;;;2.95;1.73;;;;;;;5.17;100.00;98711.81;5103725;28;20060;-65
2023/01/10 13:02:44;;;;;;;3.05;1.50;;;;;;;5.40;100.00;98711.66;5065273;28;20066;-66
2023/01/10 13:05:29;;;;;;;2.65;1.50;;;;;;;5.25;100.00;98723.59;5091119;28;20044;-67
2023/01/10 13:08:21;;;;;;;4.20;1.38;;;;;;;5.19;100.00;98706.53;5094273;28;20068;-63
2023/01/10 13:11:11;;;;;;;3.78;1.60;;;;;;;5.19;100.00;98719.53;5088504;28;21777;-64
2023/01/10 13:14:02;;;;;;;3.90;1.50;;;;;;;5.19;99.40;98724.72;5110952;28;20039;-65
2023/01/10 13:16:56;;;;;;;2.80;1.45;;;;;;;5.17;98.90;98735.19;5089604;28;20058;-64
2023/01/10 13:19:41;;;;;;;2.33;1.40;;;;;;;5.19;97.89;98740.31;5088831;28;20088;-65
2023/01/10 13:22:35;;;;;;;4.05;1.92;;;;;;;5.24;97.91;98745.31;5096359;28;20040;-66
2023/01/10 13:25:33;;;;;;;4.03;1.50;;;;;;;5.27;97.13;98750.38;5090582;28;20056;-65
2023/01/10 13:28:29;;;;;;;3.70;1.65;;;;;;;5.20;96.64;98749.81;5096681;28;20044;-62